createdAt,value
2019-04-11T00:01:12.099Z,57.40
2019-04-11T00:03:41.779Z,56.60
2019-04-11T00:06:11.837Z,57.20
2019-04-11T00:08:41.933Z,57.60
2019-04-11T00:11:13.489Z,57.80
2019-04-11T00:13:43.233Z,57.20
2019-04-11T00:16:13.106Z,57.00
2019-04-11T00:18:43.007Z,56.60
2019-04-11T00:21:12.820Z,56.80
2019-04-11T00:23:42.707Z,57.10
2019-04-11T00:26:12.168Z,56.50
2019-04-11T00:28:41.710Z,57.40
2019-04-11T00:31:11.144Z,56.90
2019-04-11T00:33:40.486Z,56.60
2019-04-11T00:36:10.370Z,57.10
2019-04-11T00:38:40.268Z,57.20
2019-04-11T00:41:09.966Z,56.60
2019-04-11T00:43:42.082Z,57.30
2019-04-11T00:46:10.529Z,57.40
2019-04-11T00:48:39.857Z,57.00
2019-04-11T00:51:09.824Z,56.30
2019-04-11T00:53:40.353Z,56.70
2019-04-11T00:56:10.911Z,56.40
2019-04-11T00:58:41.305Z,56.80
2019-04-11T01:01:12.436Z,56.00
2019-04-11T01:03:41.821Z,55.90
2019-04-11T01:06:12.211Z,56.50
2019-04-11T01:08:41.981Z,56.00
2019-04-11T01:11:11.973Z,56.10
2019-04-11T01:13:49.106Z,56.30
2019-04-11T01:16:20.587Z,56.60
2019-04-11T01:18:50.019Z,56.20
2019-04-11T01:21:20.014Z,56.20
2019-04-11T01:23:49.605Z,56.40
2019-04-11T01:26:19.177Z,56.40
2019-04-11T01:28:49.079Z,58.00
2019-04-11T01:31:20.260Z,57.60
2019-04-11T01:33:49.567Z,58.00
2019-04-11T01:36:18.877Z,59.30
2019-04-11T01:38:56.824Z,58.30
2019-04-11T01:41:26.718Z,58.00
2019-04-11T01:44:02.137Z,59.50
2019-04-11T01:46:27.192Z,59.10
2019-04-11T01:49:01.144Z,57.60
2019-04-11T01:51:30.453Z,58.80
2019-04-11T01:53:59.826Z,59.10
2019-04-11T01:56:29.387Z,59.80
2019-04-11T01:58:59.399Z,59.90
2019-04-11T02:01:30.645Z,61.00
2019-04-11T02:04:01.785Z,60.70
2019-04-11T02:06:31.998Z,60.30
2019-04-11T02:09:01.951Z,59.90
2019-04-11T02:11:32.222Z,59.50
2019-04-11T02:14:10.416Z,59.80
2019-04-11T02:16:32.768Z,59.40
2019-04-11T02:19:02.206Z,60.60
2019-04-11T02:21:31.896Z,59.80
2019-04-11T02:24:03.695Z,60.30
2019-04-11T02:26:35.620Z,60.10
2019-04-11T02:29:05.554Z,60.80
2019-04-11T02:31:47.299Z,61.80
2019-04-11T02:34:16.810Z,60.70
2019-04-11T02:36:46.597Z,61.60
2019-04-11T02:39:19.280Z,62.90
2019-04-11T02:41:47.469Z,60.90
2019-04-11T02:44:30.836Z,61.60
2019-04-11T02:46:58.053Z,64.40
2019-04-11T02:49:21.335Z,65.60
2019-04-11T02:51:51.278Z,67.30
2019-04-11T02:54:22.406Z,66.80
2019-04-11T02:56:54.565Z,65.10
2019-04-11T02:59:25.220Z,67.40
2019-04-11T03:01:55.895Z,68.30
2019-04-11T03:04:26.981Z,67.60
2019-04-11T03:06:57.386Z,67.70
2019-04-11T03:09:27.068Z,67.90
2019-04-11T03:11:58.941Z,67.90
2019-04-11T03:14:44.570Z,67.60
2019-04-11T03:17:10.686Z,67.80
2019-04-11T03:19:43.997Z,68.70
2019-04-11T03:22:03.306Z,69.50
2019-04-11T03:24:35.278Z,68.80
2019-04-11T03:27:05.713Z,69.00
2019-04-11T03:29:37.789Z,69.90
2019-04-11T03:35:20.881Z,70.60
2019-04-11T03:37:49.432Z,70.10
2019-04-11T03:39:59.272Z,69.40
2019-04-11T03:42:36.714Z,68.40
2019-04-11T03:45:11.509Z,69.70
2019-04-11T03:47:36.034Z,70.00
2019-04-11T03:50:00.705Z,70.80
2019-04-11T03:52:25.268Z,69.10
2019-04-11T03:54:56.200Z,68.20
2019-04-11T03:57:27.579Z,70.30
2019-04-11T03:59:59.293Z,69.30
2019-04-11T04:02:30.722Z,71.70
2019-04-11T04:05:01.471Z,71.60
2019-04-11T04:07:32.018Z,71.20
2019-04-11T04:10:03.036Z,70.70
2019-04-11T04:12:33.795Z,69.20
2019-04-11T04:15:29.685Z,71.10
2019-04-11T04:17:45.579Z,68.70
2019-04-11T04:20:33.217Z,67.70
2019-04-11T04:23:05.315Z,67.80
2019-04-11T04:25:36.806Z,66.70
2019-04-11T04:28:07.491Z,67.70
2019-04-11T04:30:38.905Z,67.50
2019-04-11T04:33:10.216Z,67.10
2019-04-11T04:35:40.781Z,67.10
2019-04-11T04:38:13.644Z,66.40
2019-04-11T04:41:00.405Z,65.90
2019-04-11T04:43:19.508Z,66.60
2019-04-11T04:46:03.427Z,66.50
2019-04-11T04:48:24.324Z,66.00
2019-04-11T04:50:54.426Z,66.30
2019-04-11T04:53:25.679Z,68.30
2019-04-11T04:55:54.352Z,67.10
2019-04-11T04:58:24.910Z,67.40
2019-04-11T05:00:56.681Z,68.90
2019-04-11T05:03:26.796Z,70.50
2019-04-11T05:05:56.352Z,70.60
2019-04-11T05:08:27.238Z,69.70
2019-04-11T05:10:57.868Z,68.70
2019-04-11T05:13:27.988Z,69.10
2019-04-11T05:16:09.531Z,67.90
2019-04-11T05:18:29.910Z,68.30
2019-04-11T05:20:59.287Z,66.50
2019-04-11T05:23:29.707Z,66.40
2019-04-11T05:26:00.090Z,66.00
2019-04-11T05:28:29.962Z,65.50
2019-04-11T05:31:00.438Z,67.10
2019-04-11T05:33:29.923Z,66.90
2019-04-11T05:36:00.430Z,67.10
2019-04-11T05:38:29.928Z,67.60
2019-04-11T05:40:59.233Z,68.40
2019-04-11T05:43:31.916Z,67.50
2019-04-11T05:46:00.244Z,66.80
2019-04-11T05:48:47.901Z,67.50
2019-04-11T05:51:21.237Z,67.90
2019-04-11T05:53:50.075Z,66.40
2019-04-11T05:56:21.775Z,66.70
2019-04-11T05:58:53.503Z,66.80
2019-04-11T06:01:36.238Z,67.50
2019-04-11T06:04:07.922Z,67.00
2019-04-11T06:07:14.655Z,66.10
2019-04-11T06:09:46.259Z,65.10
2019-04-11T06:12:21.234Z,64.40
2019-04-11T06:14:58.273Z,64.10
2019-04-11T06:17:27.587Z,64.30
2019-04-11T06:19:58.687Z,62.80
2019-04-11T06:22:28.117Z,62.90
2019-04-11T06:25:03.245Z,61.90
2019-04-11T06:27:36.038Z,61.00
2019-04-11T06:30:15.937Z,60.30
2019-04-11T06:32:56.307Z,59.30
2019-04-11T06:35:34.164Z,59.50
2019-04-11T06:38:06.053Z,59.60
2019-04-11T06:40:37.179Z,58.20
2019-04-11T06:43:08.160Z,58.70
2019-04-11T06:45:41.902Z,58.70
2019-04-11T06:48:27.901Z,58.00
2019-04-11T06:51:13.988Z,57.20
2019-04-11T06:53:45.050Z,57.00
2019-04-11T06:56:16.842Z,57.40
2019-04-11T06:58:54.992Z,57.40
2019-04-11T07:01:27.873Z,57.50
2019-04-11T07:03:59.136Z,57.60
2019-04-11T07:06:31.333Z,56.90
2019-04-11T07:09:12.423Z,56.80
2019-04-11T07:11:44.722Z,56.90
2019-04-11T07:14:33.666Z,56.10
2019-04-11T07:17:21.129Z,56.20
2019-04-11T07:20:08.730Z,56.20
2019-04-11T07:22:56.028Z,55.70
2019-04-11T07:25:27.005Z,55.10
2019-04-11T07:27:59.318Z,54.50
2019-04-11T07:30:47.365Z,54.80
2019-04-11T07:33:24.574Z,54.90
2019-04-11T07:36:08.375Z,54.50
2019-04-11T07:38:43.290Z,54.30
2019-04-11T07:41:31.852Z,53.80
2019-04-11T07:44:01.289Z,53.70
2019-04-11T07:46:47.605Z,53.90
2019-04-11T07:49:18.549Z,53.70
2019-04-11T07:51:50.688Z,53.70
2019-04-11T07:54:20.407Z,53.90
2019-04-11T07:57:00.269Z,53.90
2019-04-11T07:59:33.933Z,53.70
2019-04-11T08:02:05.792Z,53.10
2019-04-11T08:04:53.376Z,53.30
2019-04-11T08:07:24.469Z,52.80
2019-04-11T08:09:58.041Z,53.50
2019-04-11T08:12:28.214Z,53.00
2019-04-11T08:15:11.374Z,51.70
2019-04-11T08:17:43.001Z,52.50
2019-04-11T08:20:31.493Z,52.30
2019-04-11T08:23:03.562Z,52.50
2019-04-11T08:25:50.853Z,51.40
2019-04-11T08:28:20.541Z,50.30
2019-04-11T08:31:03.534Z,52.00
2019-04-11T08:33:33.098Z,50.90
2019-04-11T08:36:05.183Z,50.30
2019-04-11T08:38:34.637Z,50.60
2019-04-11T08:41:09.712Z,50.60
2019-04-11T08:43:39.344Z,50.20
2019-04-11T08:46:10.957Z,50.90
2019-04-11T08:48:42.763Z,50.50
2019-04-11T08:51:14.874Z,51.30
2019-04-11T08:54:04.846Z,49.60
2019-04-11T08:56:35.157Z,50.40
2019-04-11T08:59:27.170Z,50.00
2019-04-11T09:01:56.471Z,50.40
2019-04-11T09:04:46.241Z,49.90
2019-04-11T09:07:17.470Z,49.30
2019-04-11T09:10:04.969Z,50.50
2019-04-11T09:12:36.425Z,48.70
2019-04-11T09:15:21.175Z,49.40
2019-04-11T09:17:58.924Z,50.80
2019-04-11T09:20:45.592Z,48.50
2019-04-11T09:23:15.487Z,49.50
2019-04-11T09:26:01.715Z,48.10
2019-04-11T09:28:35.683Z,47.20
2019-04-11T09:31:23.324Z,48.20
2019-04-11T09:34:11.315Z,48.00
2019-04-11T09:36:42.333Z,47.10
2019-04-11T09:39:17.024Z,48.00
2019-04-11T09:42:05.011Z,48.00
2019-04-11T09:44:49.182Z,47.40
2019-04-11T09:47:36.225Z,46.10
2019-04-11T09:50:32.649Z,44.70
2019-04-11T09:53:01.998Z,42.40
2019-04-11T09:55:45.795Z,41.00
2019-04-11T09:58:25.398Z,40.80
2019-04-11T10:01:12.586Z,38.80
2019-04-11T10:03:43.024Z,38.70
2019-04-11T10:06:14.093Z,39.80
2019-04-11T10:08:44.326Z,39.60
2019-04-11T10:11:32.395Z,39.40
2019-04-11T10:14:07.264Z,38.90
2019-04-11T10:16:54.617Z,37.10
2019-04-11T10:19:35.906Z,37.90
2019-04-11T10:22:22.785Z,38.60
2019-04-11T10:24:54.767Z,39.10
2019-04-11T10:27:31.605Z,39.10
2019-04-11T10:30:19.476Z,40.20
2019-04-11T10:32:53.333Z,41.50
2019-04-11T10:35:36.596Z,40.80
2019-04-11T10:38:08.487Z,40.60
2019-04-11T10:40:56.649Z,39.30
2019-04-11T10:43:26.630Z,39.30
2019-04-11T10:45:58.783Z,39.00
2019-04-11T10:48:38.674Z,39.20
2019-04-11T10:51:00.962Z,41.00
2019-04-11T10:53:31.815Z,38.60
2019-04-11T10:56:19.270Z,35.40
2019-04-11T10:58:51.253Z,35.10
2019-04-11T11:01:31.738Z,34.00
2019-04-11T11:04:03.375Z,31.60
2019-04-11T11:06:34.390Z,32.60
2019-04-11T11:09:12.228Z,33.20
2019-04-11T11:11:44.164Z,32.30
2019-04-11T11:14:31.316Z,32.40
2019-04-11T11:17:43.809Z,32.40
2019-04-11T11:20:16.396Z,30.40
2019-04-11T11:22:46.353Z,31.30
2019-04-11T11:25:34.897Z,29.80
2019-04-11T11:28:05.448Z,29.70
2019-04-11T11:30:39.910Z,29.10
2019-04-11T11:33:11.046Z,28.50
2019-04-11T11:35:52.102Z,28.20
2019-04-11T11:38:26.518Z,28.70
2019-04-11T11:41:12.398Z,29.90
2019-04-11T11:43:41.743Z,29.10
2019-04-11T11:46:19.661Z,28.00
2019-04-11T11:48:54.440Z,28.30
2019-04-11T11:51:29.236Z,28.10
2019-04-11T11:54:07.163Z,27.90
2019-04-11T11:56:38.223Z,28.00
2019-04-11T11:59:15.310Z,27.90
2019-04-11T12:01:56.587Z,28.00
2019-04-11T12:04:35.457Z,27.30
2019-04-11T12:07:08.632Z,27.30
2019-04-11T12:09:56.177Z,28.10
2019-04-11T12:12:36.232Z,28.00
2019-04-11T12:15:25.792Z,27.00
2019-04-11T12:18:18.088Z,27.40
2019-04-11T12:20:56.260Z,27.30
2019-04-11T12:23:53.858Z,27.90
2019-04-11T12:26:15.608Z,27.80
2019-04-11T12:28:54.219Z,27.40
2019-04-11T12:31:26.005Z,26.60
2019-04-11T12:33:57.592Z,26.20
2019-04-11T12:36:28.692Z,26.60
2019-04-11T12:39:08.954Z,26.30
2019-04-11T12:41:58.329Z,26.80
2019-04-11T12:44:29.634Z,25.90
2019-04-11T12:47:17.645Z,26.60
2019-04-11T12:49:53.026Z,27.10
2019-04-11T12:52:27.362Z,27.10
2019-04-11T12:55:01.245Z,27.20
2019-04-11T12:57:42.584Z,27.80
2019-04-11T13:00:14.127Z,25.90
2019-04-11T13:03:00.384Z,26.40
2019-04-11T13:05:33.170Z,27.00
2019-04-11T13:08:13.185Z,26.30
2019-04-11T13:10:44.221Z,27.10
2019-04-11T13:13:15.341Z,26.70
2019-04-11T13:15:46.372Z,26.20
2019-04-11T13:18:23.289Z,27.10
2019-04-11T13:21:06.441Z,26.40
2019-04-11T13:23:40.665Z,26.50
2019-04-11T13:26:20.987Z,25.80
2019-04-11T13:29:08.190Z,26.60
2019-04-11T13:31:54.418Z,26.00
2019-04-11T13:34:25.397Z,26.00
2019-04-11T13:37:12.893Z,26.00
2019-04-11T13:39:43.904Z,25.60
2019-04-11T13:42:23.745Z,26.00
2019-04-11T13:44:53.105Z,25.60
2019-04-11T13:47:29.816Z,25.00
2019-04-11T13:50:00.440Z,26.70
2019-04-11T13:52:43.583Z,25.80
2019-04-11T13:55:15.169Z,25.80
2019-04-11T13:57:46.203Z,25.80
2019-04-11T14:00:33.580Z,25.70
2019-04-11T14:03:20.837Z,25.60
2019-04-11T14:05:50.217Z,25.50
2019-04-11T14:08:30.417Z,25.90
2019-04-11T14:11:07.516Z,25.20
2019-04-11T14:13:39.676Z,25.00
2019-04-11T14:16:14.609Z,24.90
2019-04-11T14:18:58.047Z,25.80
2019-04-11T14:21:27.956Z,25.70
2019-04-11T14:24:01.922Z,25.80
2019-04-11T14:26:39.129Z,25.40
2019-04-11T14:29:13.082Z,25.70
2019-04-11T14:31:54.041Z,25.00
2019-04-11T14:34:38.415Z,25.40
2019-04-11T14:37:09.374Z,25.80
2019-04-11T14:39:40.333Z,24.30
2019-04-11T14:42:17.506Z,25.10
2019-04-11T14:44:48.358Z,25.00
2019-04-11T14:47:27.901Z,25.20
2019-04-11T14:49:58.866Z,25.00
2019-04-11T14:52:35.511Z,24.90
2019-04-11T14:55:08.608Z,24.60
2019-04-11T14:57:47.617Z,24.30
2019-04-11T15:00:21.896Z,24.50
2019-04-11T15:03:02.082Z,25.10
2019-04-11T15:05:33.041Z,24.50
2019-04-11T15:08:02.368Z,24.60
2019-04-11T15:10:33.378Z,25.30
2019-04-11T15:13:02.894Z,25.10
2019-04-11T15:15:36.619Z,24.30
2019-04-11T15:18:05.956Z,24.50
2019-04-11T15:21:12.243Z,24.60
2019-04-11T15:23:41.934Z,25.00
2019-04-11T15:26:29.398Z,25.10
2019-04-11T15:29:00.402Z,24.60
2019-04-11T15:31:39.345Z,24.90
2019-04-11T15:34:19.175Z,25.20
2019-04-11T15:36:52.825Z,25.60
2019-04-11T15:39:44.757Z,25.30
2019-04-11T15:42:12.738Z,26.20
2019-04-11T15:44:49.659Z,25.80
2019-04-11T15:47:20.613Z,25.40
2019-04-11T15:50:07.847Z,25.40
2019-04-11T15:52:39.570Z,25.70
2019-04-11T15:55:26.960Z,25.90
2019-04-11T15:57:56.341Z,26.00
2019-04-11T16:00:44.333Z,26.30
2019-04-11T16:03:15.073Z,26.00
2019-04-11T16:06:03.856Z,25.90
2019-04-11T16:08:38.846Z,26.30
2019-04-11T16:11:13.922Z,25.40
2019-04-11T16:14:02.933Z,25.50
2019-04-11T16:16:36.587Z,25.70
2019-04-11T16:19:07.632Z,25.70
2019-04-11T16:21:47.566Z,25.60
2019-04-11T16:24:28.176Z,26.30
2019-04-11T16:27:17.672Z,25.80
2019-04-11T16:30:03.916Z,26.10
2019-04-11T16:32:34.931Z,26.60
2019-04-11T16:35:07.440Z,27.30
2019-04-11T16:37:36.761Z,27.10
2019-04-11T16:40:17.845Z,27.90
2019-04-11T16:42:47.630Z,29.00
2019-04-11T16:45:24.662Z,29.20
2019-04-11T16:47:56.961Z,29.70
2019-04-11T16:50:26.503Z,30.70
2019-04-11T16:52:55.914Z,30.50
2019-04-11T16:55:25.229Z,30.70
2019-04-11T16:57:54.582Z,31.50
2019-04-11T17:00:23.986Z,31.50
2019-04-11T17:02:54.995Z,30.80
2019-04-11T17:05:26.819Z,30.00
2019-04-11T17:08:06.207Z,30.30
2019-04-11T17:10:56.801Z,29.40
2019-04-11T17:13:25.981Z,29.20
2019-04-11T17:15:59.843Z,29.40
2019-04-11T17:18:27.282Z,28.80
2019-04-11T17:20:56.673Z,28.80
2019-04-11T17:23:26.055Z,28.90
2019-04-11T17:25:55.433Z,29.10
2019-04-11T17:28:24.828Z,29.50
2019-04-11T17:30:55.786Z,29.60
2019-04-11T17:33:27.748Z,29.70
2019-04-11T17:35:56.327Z,30.00
2019-04-11T17:38:25.725Z,30.60
2019-04-11T17:40:55.047Z,31.20
2019-04-11T17:43:24.473Z,31.20
2019-04-11T17:45:56.995Z,32.10
2019-04-11T17:48:24.958Z,32.30
2019-04-11T17:50:54.285Z,32.60
2019-04-11T17:53:24.986Z,32.80
2019-04-11T17:55:55.020Z,33.50
2019-04-11T17:58:26.994Z,33.90
2019-04-11T18:00:57.279Z,34.40
2019-04-11T18:03:26.757Z,34.40
2019-04-11T18:05:56.055Z,34.90
2019-04-11T18:08:25.394Z,35.00
2019-04-11T18:10:55.985Z,34.90
2019-04-11T18:13:30.571Z,35.30
2019-04-11T18:16:00.815Z,35.60
2019-04-11T18:18:28.273Z,35.70
2019-04-11T18:20:57.671Z,36.00
2019-04-11T18:23:27.163Z,37.60
2019-04-11T18:25:56.804Z,36.80
2019-04-11T18:28:26.132Z,38.90
2019-04-11T18:30:55.435Z,37.60
2019-04-11T18:33:24.845Z,39.20
2019-04-11T18:35:54.141Z,39.30
2019-04-11T18:38:23.539Z,40.00
2019-04-11T18:40:53.945Z,39.90
2019-04-11T18:43:25.468Z,39.80
2019-04-11T18:45:54.361Z,41.40
2019-04-11T18:48:23.738Z,42.40
2019-04-11T18:50:53.753Z,40.60
2019-04-11T18:53:23.302Z,41.20
2019-04-11T18:55:52.719Z,40.80
2019-04-11T18:58:22.036Z,41.40
2019-04-11T19:00:51.399Z,41.90
2019-04-11T19:03:21.100Z,42.30
2019-04-11T19:05:50.588Z,40.60
2019-04-11T19:08:20.064Z,40.30
2019-04-11T19:10:49.559Z,42.30
2019-04-11T19:13:19.161Z,41.10
2019-04-11T19:15:48.560Z,41.60
2019-04-11T19:18:18.166Z,40.80
2019-04-11T19:20:49.871Z,43.10
2019-04-11T19:23:18.656Z,42.10
2019-04-11T19:25:48.089Z,42.20
2019-04-11T19:28:17.491Z,42.90
2019-04-11T19:30:46.920Z,42.20
2019-04-11T19:33:19.018Z,43.20
2019-04-11T19:35:47.489Z,41.80
2019-04-11T19:38:24.422Z,42.00
2019-04-11T19:40:55.573Z,43.90
2019-04-11T19:43:24.990Z,42.10
2019-04-11T19:45:54.328Z,42.60
2019-04-11T19:48:25.238Z,42.70
2019-04-11T19:50:58.648Z,42.50
2019-04-11T19:53:25.940Z,43.60
2019-04-11T19:56:09.079Z,42.60
2019-04-11T19:58:38.588Z,42.70
2019-04-11T20:01:08.156Z,42.00
2019-04-11T20:03:37.497Z,41.40
2019-04-11T20:06:06.823Z,42.20
2019-04-11T20:08:36.356Z,41.90
2019-04-11T20:11:05.690Z,42.90
2019-04-11T20:13:34.990Z,42.50
2019-04-11T20:16:04.415Z,44.20
2019-04-11T20:18:33.744Z,45.30
2019-04-11T20:21:07.222Z,47.60
2019-04-11T20:23:34.249Z,47.50
2019-04-11T20:26:03.564Z,48.00
2019-04-11T20:28:33.087Z,47.60
2019-04-11T20:31:03.558Z,47.10
2019-04-11T20:33:34.673Z,47.40
2019-04-11T20:36:04.054Z,48.90
2019-04-11T20:38:33.411Z,48.40
2019-04-11T20:41:03.034Z,48.10
2019-04-11T20:43:32.537Z,46.10
2019-04-11T20:46:02.311Z,46.40
2019-04-11T20:48:34.872Z,48.20
2019-04-11T20:51:02.724Z,45.20
2019-04-11T20:53:32.029Z,44.10
2019-04-11T20:56:01.411Z,44.50
2019-04-11T20:58:30.747Z,44.50
2019-04-11T21:01:00.082Z,45.00
2019-04-11T21:03:30.221Z,45.50
2019-04-11T21:06:01.717Z,44.10
2019-04-11T21:08:33.147Z,43.90
2019-04-11T21:11:04.643Z,43.20
2019-04-11T21:13:33.374Z,43.40
2019-04-11T21:16:02.679Z,43.40
2019-04-11T21:18:31.994Z,42.70
2019-04-11T21:21:01.374Z,42.50
2019-04-11T21:23:30.647Z,42.60
2019-04-11T21:25:59.972Z,43.10
2019-04-11T21:28:30.192Z,42.80
2019-04-11T21:31:00.808Z,43.10
2019-04-11T21:33:34.263Z,43.50
2019-04-11T21:36:01.960Z,43.20
2019-04-11T21:38:31.597Z,43.90
2019-04-11T21:41:01.069Z,43.50
2019-04-11T21:43:30.370Z,44.00
2019-04-11T21:45:59.863Z,44.00
2019-04-11T21:48:29.230Z,44.40
2019-04-11T21:50:58.547Z,44.60
2019-04-11T21:53:36.519Z,45.30
2019-04-11T21:55:58.943Z,45.00
2019-04-11T21:58:28.246Z,45.30
2019-04-11T22:01:03.831Z,46.00
2019-04-11T22:03:34.757Z,46.00
2019-04-11T22:06:04.210Z,46.00
2019-04-11T22:08:34.367Z,46.20
2019-04-11T22:11:09.864Z,46.40
2019-04-11T22:13:37.941Z,47.00
2019-04-11T22:16:07.661Z,46.20
2019-04-11T22:18:36.960Z,46.60
2019-04-11T22:21:06.264Z,47.30
2019-04-11T22:23:35.575Z,46.90
2019-04-11T22:26:04.878Z,47.50
2019-04-11T22:28:34.197Z,47.30
2019-04-11T22:31:03.577Z,47.80
2019-04-11T22:33:50.941Z,49.30
2019-04-11T22:36:20.241Z,47.70
2019-04-11T22:38:49.559Z,47.80
2019-04-11T22:41:18.853Z,48.10
2019-04-11T22:43:48.161Z,48.30
2019-04-11T22:46:20.954Z,47.90
2019-04-11T22:48:48.490Z,48.00
2019-04-11T22:51:17.889Z,49.00
2019-04-11T22:53:47.221Z,48.50
2019-04-11T22:56:16.537Z,49.00
2019-04-11T22:58:45.909Z,48.50
2019-04-11T23:01:16.595Z,48.90
2019-04-11T23:03:51.015Z,48.50
2019-04-11T23:06:20.314Z,51.00
2019-04-11T23:08:49.629Z,49.10
2019-04-11T23:11:18.996Z,49.40
2019-04-11T23:13:48.318Z,49.70
2019-04-11T23:16:17.625Z,49.60
2019-04-11T23:18:46.948Z,49.80
2019-04-11T23:21:16.245Z,50.20
2019-04-11T23:23:45.570Z,50.30
2019-04-11T23:26:14.870Z,50.40
2019-04-11T23:28:46.800Z,50.30
2019-04-11T23:31:19.834Z,50.60
2019-04-11T23:33:46.880Z,50.50
2019-04-11T23:36:16.189Z,50.40
2019-04-11T23:38:45.481Z,50.90
2019-04-11T23:41:14.794Z,51.40
2019-04-11T23:43:44.105Z,51.50
2019-04-11T23:46:13.421Z,52.10
2019-04-11T23:48:42.720Z,51.80
2019-04-11T23:51:12.035Z,51.70
2019-04-11T23:53:41.344Z,52.10
2019-04-11T23:56:10.645Z,51.80
2019-04-11T23:58:39.943Z,51.70
